sensor_id;sensor_type;location;lat;lon;timestamp;P1;durP1;ratioP1;P2;durP2;ratioP2
73951;SDS011;62304;47.662;18.324;2023-07-02T00:02:24;16.05;;;10.95;;
73951;SDS011;62304;47.662;18.324;2023-07-02T00:05:28;17.40;;;11.07;;
73951;SDS011;62304;47.662;18.324;2023-07-02T00:08:30;17.87;;;11.77;;
73951;SDS011;62304;47.662;18.324;2023-07-02T00:11:34;19.70;;;11.30;;
73951;SDS011;62304;47.662;18.324;2023-07-02T00:14:38;18.87;;;10.85;;
73951;SDS011;62304;47.662;18.324;2023-07-02T00:17:41;20.42;;;10.40;;
73951;SDS011;62304;47.662;18.324;2023-07-02T00:20:44;19.23;;;11.50;;
73951;SDS011;62304;47.662;18.324;2023-07-02T00:23:49;19.73;;;11.57;;
73951;SDS011;62304;47.662;18.324;2023-07-02T00:26:52;18.33;;;10.77;;
73951;SDS011;62304;47.662;18.324;2023-07-02T00:29:55;17.65;;;10.52;;
73951;SDS011;62304;47.662;18.324;2023-07-02T00:32:57;20.55;;;10.77;;
73951;SDS011;62304;47.662;18.324;2023-07-02T00:36:01;17.05;;;11.05;;
73951;SDS011;62304;47.662;18.324;2023-07-02T00:39:03;16.10;;;10.52;;
73951;SDS011;62304;47.662;18.324;2023-07-02T00:42:07;16.63;;;10.97;;
73951;SDS011;62304;47.662;18.324;2023-07-02T00:45:10;14.13;;;9.95;;
73951;SDS011;62304;47.662;18.324;2023-07-02T00:48:13;16.12;;;10.48;;
73951;SDS011;62304;47.662;18.324;2023-07-02T00:51:17;17.48;;;11.10;;
73951;SDS011;62304;47.662;18.324;2023-07-02T00:54:22;15.80;;;10.88;;
73951;SDS011;62304;47.662;18.324;2023-07-02T00:57:25;19.63;;;12.20;;
73951;SDS011;62304;47.662;18.324;2023-07-02T01:00:32;18.60;;;11.77;;
73951;SDS011;62304;47.662;18.324;2023-07-02T01:03:35;18.23;;;11.95;;
73951;SDS011;62304;47.662;18.324;2023-07-02T01:06:39;19.17;;;11.27;;
73951;SDS011;62304;47.662;18.324;2023-07-02T01:09:44;20.50;;;11.32;;
73951;SDS011;62304;47.662;18.324;2023-07-02T01:12:47;18.17;;;11.33;;
73951;SDS011;62304;47.662;18.324;2023-07-02T01:15:50;19.05;;;10.80;;
73951;SDS011;62304;47.662;18.324;2023-07-02T01:18:54;18.50;;;11.95;;
73951;SDS011;62304;47.662;18.324;2023-07-02T01:21:57;21.27;;;11.63;;
73951;SDS011;62304;47.662;18.324;2023-07-02T01:25:00;17.70;;;11.40;;
73951;SDS011;62304;47.662;18.324;2023-07-02T01:28:04;18.67;;;11.90;;
73951;SDS011;62304;47.662;18.324;2023-07-02T01:31:07;17.52;;;10.95;;
73951;SDS011;62304;47.662;18.324;2023-07-02T01:34:10;21.62;;;11.60;;
73951;SDS011;62304;47.662;18.324;2023-07-02T01:37:14;17.73;;;10.75;;
73951;SDS011;62304;47.662;18.324;2023-07-02T01:40:20;19.23;;;11.30;;
73951;SDS011;62304;47.662;18.324;2023-07-02T01:43:23;16.87;;;10.43;;
73951;SDS011;62304;47.662;18.324;2023-07-02T01:46:26;19.42;;;11.10;;
73951;SDS011;62304;47.662;18.324;2023-07-02T01:49:29;21.58;;;12.73;;
73951;SDS011;62304;47.662;18.324;2023-07-02T01:52:33;17.65;;;10.52;;
73951;SDS011;62304;47.662;18.324;2023-07-02T01:55:36;19.80;;;11.48;;
73951;SDS011;62304;47.662;18.324;2023-07-02T01:58:40;17.40;;;10.77;;
73951;SDS011;62304;47.662;18.324;2023-07-02T02:01:43;17.23;;;10.25;;
73951;SDS011;62304;47.662;18.324;2023-07-02T02:04:46;17.30;;;10.93;;
73951;SDS011;62304;47.662;18.324;2023-07-02T02:07:49;16.80;;;10.85;;
73951;SDS011;62304;47.662;18.324;2023-07-02T02:10:52;18.87;;;11.20;;
73951;SDS011;62304;47.662;18.324;2023-07-02T02:13:56;18.43;;;10.47;;
73951;SDS011;62304;47.662;18.324;2023-07-02T02:17:00;21.15;;;10.88;;
73951;SDS011;62304;47.662;18.324;2023-07-02T02:20:03;18.12;;;11.12;;
73951;SDS011;62304;47.662;18.324;2023-07-02T02:23:08;15.98;;;9.75;;
73951;SDS011;62304;47.662;18.324;2023-07-02T02:26:11;17.50;;;11.07;;
73951;SDS011;62304;47.662;18.324;2023-07-02T02:29:15;18.90;;;10.87;;
73951;SDS011;62304;47.662;18.324;2023-07-02T02:32:18;20.50;;;10.57;;
73951;SDS011;62304;47.662;18.324;2023-07-02T02:35:24;16.65;;;9.98;;
73951;SDS011;62304;47.662;18.324;2023-07-02T02:38:27;18.55;;;10.80;;
73951;SDS011;62304;47.662;18.324;2023-07-02T02:41:31;17.55;;;11.40;;
73951;SDS011;62304;47.662;18.324;2023-07-02T02:44:34;15.77;;;10.03;;
73951;SDS011;62304;47.662;18.324;2023-07-02T02:47:37;18.87;;;10.48;;
73951;SDS011;62304;47.662;18.324;2023-07-02T02:50:40;17.05;;;9.90;;
73951;SDS011;62304;47.662;18.324;2023-07-02T02:53:45;18.10;;;10.20;;
73951;SDS011;62304;47.662;18.324;2023-07-02T02:56:48;18.87;;;10.38;;
73951;SDS011;62304;47.662;18.324;2023-07-02T02:59:51;15.17;;;9.50;;
73951;SDS011;62304;47.662;18.324;2023-07-02T03:02:54;17.60;;;10.50;;
73951;SDS011;62304;47.662;18.324;2023-07-02T03:05:58;17.92;;;10.23;;
73951;SDS011;62304;47.662;18.324;2023-07-02T03:09:01;18.12;;;10.15;;
73951;SDS011;62304;47.662;18.324;2023-07-02T03:12:05;17.52;;;10.50;;
73951;SDS011;62304;47.662;18.324;2023-07-02T03:15:08;20.23;;;10.80;;
73951;SDS011;62304;47.662;18.324;2023-07-02T03:18:12;16.00;;;10.85;;
73951;SDS011;62304;47.662;18.324;2023-07-02T03:21:15;21.08;;;10.30;;
73951;SDS011;62304;47.662;18.324;2023-07-02T03:24:18;19.70;;;10.98;;
73951;SDS011;62304;47.662;18.324;2023-07-02T03:27:21;18.12;;;10.63;;
73951;SDS011;62304;47.662;18.324;2023-07-02T03:30:24;16.97;;;9.07;;
73951;SDS011;62304;47.662;18.324;2023-07-02T03:33:27;24.20;;;11.82;;
73951;SDS011;62304;47.662;18.324;2023-07-02T03:36:30;17.50;;;10.40;;
73951;SDS011;62304;47.662;18.324;2023-07-02T03:39:33;20.65;;;11.50;;
73951;SDS011;62304;47.662;18.324;2023-07-02T03:42:36;20.92;;;10.27;;
73951;SDS011;62304;47.662;18.324;2023-07-02T03:45:39;16.60;;;9.57;;
73951;SDS011;62304;47.662;18.324;2023-07-02T03:48:42;16.65;;;10.80;;
73951;SDS011;62304;47.662;18.324;2023-07-02T03:51:45;17.62;;;10.73;;
73951;SDS011;62304;47.662;18.324;2023-07-02T03:54:48;20.92;;;11.30;;
73951;SDS011;62304;47.662;18.324;2023-07-02T03:57:52;20.33;;;11.18;;
73951;SDS011;62304;47.662;18.324;2023-07-02T04:00:55;20.83;;;10.70;;
73951;SDS011;62304;47.662;18.324;2023-07-02T04:03:58;19.83;;;10.30;;
73951;SDS011;62304;47.662;18.324;2023-07-02T04:07:01;18.92;;;10.45;;
73951;SDS011;62304;47.662;18.324;2023-07-02T04:10:05;19.60;;;10.52;;
73951;SDS011;62304;47.662;18.324;2023-07-02T04:13:08;23.67;;;11.00;;
73951;SDS011;62304;47.662;18.324;2023-07-02T04:16:12;18.47;;;10.80;;
73951;SDS011;62304;47.662;18.324;2023-07-02T04:19:15;17.42;;;10.45;;
73951;SDS011;62304;47.662;18.324;2023-07-02T04:22:18;18.00;;;10.85;;
73951;SDS011;62304;47.662;18.324;2023-07-02T04:25:21;21.65;;;10.27;;
73951;SDS011;62304;47.662;18.324;2023-07-02T04:28:45;17.20;;;10.45;;
73951;SDS011;62304;47.662;18.324;2023-07-02T04:31:48;15.87;;;9.77;;
73951;SDS011;62304;47.662;18.324;2023-07-02T04:34:51;16.27;;;9.43;;
73951;SDS011;62304;47.662;18.324;2023-07-02T04:37:54;18.50;;;9.60;;
73951;SDS011;62304;47.662;18.324;2023-07-02T04:40:58;18.00;;;9.35;;
73951;SDS011;62304;47.662;18.324;2023-07-02T04:44:04;16.90;;;8.93;;
73951;SDS011;62304;47.662;18.324;2023-07-02T04:47:07;19.03;;;9.70;;
73951;SDS011;62304;47.662;18.324;2023-07-02T04:50:10;19.73;;;9.40;;
73951;SDS011;62304;47.662;18.324;2023-07-02T04:53:16;17.33;;;10.05;;
73951;SDS011;62304;47.662;18.324;2023-07-02T04:56:19;17.35;;;9.43;;
73951;SDS011;62304;47.662;18.324;2023-07-02T04:59:22;14.68;;;9.63;;
73951;SDS011;62304;47.662;18.324;2023-07-02T05:02:26;15.53;;;9.90;;
73951;SDS011;62304;47.662;18.324;2023-07-02T05:05:29;15.68;;;9.55;;
73951;SDS011;62304;47.662;18.324;2023-07-02T05:08:32;17.83;;;9.15;;
73951;SDS011;62304;47.662;18.324;2023-07-02T05:11:36;15.88;;;8.43;;
73951;SDS011;62304;47.662;18.324;2023-07-02T05:14:39;14.05;;;7.75;;
73951;SDS011;62304;47.662;18.324;2023-07-02T05:17:42;14.60;;;8.43;;
73951;SDS011;62304;47.662;18.324;2023-07-02T05:20:45;16.37;;;9.30;;
73951;SDS011;62304;47.662;18.324;2023-07-02T05:23:49;12.40;;;8.18;;
73951;SDS011;62304;47.662;18.324;2023-07-02T05:26:52;14.68;;;7.32;;
73951;SDS011;62304;47.662;18.324;2023-07-02T05:29:55;17.48;;;7.97;;
73951;SDS011;62304;47.662;18.324;2023-07-02T05:32:58;14.27;;;8.03;;
73951;SDS011;62304;47.662;18.324;2023-07-02T05:36:01;15.43;;;7.78;;
73951;SDS011;62304;47.662;18.324;2023-07-02T05:39:04;11.48;;;8.02;;
73951;SDS011;62304;47.662;18.324;2023-07-02T05:42:07;11.85;;;7.82;;
73951;SDS011;62304;47.662;18.324;2023-07-02T05:45:10;12.48;;;7.62;;
73951;SDS011;62304;47.662;18.324;2023-07-02T05:48:13;13.53;;;7.63;;
73951;SDS011;62304;47.662;18.324;2023-07-02T05:51:21;12.63;;;7.85;;
73951;SDS011;62304;47.662;18.324;2023-07-02T05:54:25;17.42;;;8.93;;
73951;SDS011;62304;47.662;18.324;2023-07-02T05:57:27;11.35;;;7.50;;
73951;SDS011;62304;47.662;18.324;2023-07-02T06:00:31;11.68;;;7.60;;
73951;SDS011;62304;47.662;18.324;2023-07-02T06:03:34;11.93;;;7.90;;
73951;SDS011;62304;47.662;18.324;2023-07-02T06:06:38;12.95;;;7.85;;
73951;SDS011;62304;47.662;18.324;2023-07-02T06:09:41;14.60;;;8.30;;
73951;SDS011;62304;47.662;18.324;2023-07-02T06:12:44;13.62;;;7.57;;
73951;SDS011;62304;47.662;18.324;2023-07-02T06:15:47;14.60;;;6.53;;
73951;SDS011;62304;47.662;18.324;2023-07-02T06:18:50;11.80;;;7.00;;
73951;SDS011;62304;47.662;18.324;2023-07-02T06:21:53;11.82;;;6.72;;
73951;SDS011;62304;47.662;18.324;2023-07-02T06:24:56;11.88;;;7.35;;
73951;SDS011;62304;47.662;18.324;2023-07-02T06:28:00;11.90;;;6.53;;
73951;SDS011;62304;47.662;18.324;2023-07-02T06:31:03;8.70;;;4.70;;
73951;SDS011;62304;47.662;18.324;2023-07-02T06:34:06;6.57;;;4.30;;
73951;SDS011;62304;47.662;18.324;2023-07-02T06:37:10;10.27;;;4.30;;
73951;SDS011;62304;47.662;18.324;2023-07-02T06:40:14;7.15;;;4.10;;
73951;SDS011;62304;47.662;18.324;2023-07-02T06:43:16;6.93;;;3.70;;
73951;SDS011;62304;47.662;18.324;2023-07-02T06:46:19;6.57;;;3.60;;
73951;SDS011;62304;47.662;18.324;2023-07-02T06:49:23;7.50;;;3.30;;
73951;SDS011;62304;47.662;18.324;2023-07-02T06:52:26;5.75;;;3.37;;
73951;SDS011;62304;47.662;18.324;2023-07-02T06:55:29;7.28;;;3.80;;
73951;SDS011;62304;47.662;18.324;2023-07-02T06:58:33;6.65;;;3.75;;
73951;SDS011;62304;47.662;18.324;2023-07-02T07:01:36;5.78;;;3.12;;
73951;SDS011;62304;47.662;18.324;2023-07-02T07:04:39;6.90;;;3.37;;
73951;SDS011;62304;47.662;18.324;2023-07-02T07:07:42;8.43;;;3.55;;
73951;SDS011;62304;47.662;18.324;2023-07-02T07:10:46;6.18;;;3.20;;
73951;SDS011;62304;47.662;18.324;2023-07-02T07:13:49;7.53;;;3.62;;
73951;SDS011;62304;47.662;18.324;2023-07-02T07:16:52;8.00;;;3.25;;
73951;SDS011;62304;47.662;18.324;2023-07-02T07:19:55;5.40;;;3.20;;
73951;SDS011;62304;47.662;18.324;2023-07-02T07:22:58;7.25;;;3.20;;
73951;SDS011;62304;47.662;18.324;2023-07-02T07:26:01;5.93;;;3.03;;
73951;SDS011;62304;47.662;18.324;2023-07-02T07:29:05;7.60;;;3.35;;
73951;SDS011;62304;47.662;18.324;2023-07-02T07:32:08;6.43;;;3.40;;
73951;SDS011;62304;47.662;18.324;2023-07-02T07:35:11;6.57;;;3.17;;
73951;SDS011;62304;47.662;18.324;2023-07-02T07:38:14;5.78;;;3.03;;
73951;SDS011;62304;47.662;18.324;2023-07-02T07:41:17;6.32;;;3.17;;
73951;SDS011;62304;47.662;18.324;2023-07-02T07:44:20;7.07;;;2.90;;
73951;SDS011;62304;47.662;18.324;2023-07-02T07:47:23;6.82;;;3.47;;
73951;SDS011;62304;47.662;18.324;2023-07-02T07:50:26;5.60;;;3.13;;
73951;SDS011;62304;47.662;18.324;2023-07-02T07:53:30;4.93;;;2.90;;
73951;SDS011;62304;47.662;18.324;2023-07-02T07:56:34;6.75;;;3.10;;
73951;SDS011;62304;47.662;18.324;2023-07-02T07:59:37;8.45;;;3.35;;
73951;SDS011;62304;47.662;18.324;2023-07-02T08:02:40;7.85;;;3.30;;
73951;SDS011;62304;47.662;18.324;2023-07-02T08:05:43;6.70;;;2.90;;
73951;SDS011;62304;47.662;18.324;2023-07-02T08:08:47;6.20;;;2.92;;
73951;SDS011;62304;47.662;18.324;2023-07-02T08:11:50;6.25;;;3.10;;
73951;SDS011;62304;47.662;18.324;2023-07-02T08:14:53;5.65;;;3.15;;
73951;SDS011;62304;47.662;18.324;2023-07-02T08:17:56;5.93;;;2.95;;
73951;SDS011;62304;47.662;18.324;2023-07-02T08:21:01;5.90;;;2.97;;
73951;SDS011;62304;47.662;18.324;2023-07-02T08:24:04;5.87;;;3.08;;
73951;SDS011;62304;47.662;18.324;2023-07-02T08:27:08;5.40;;;3.22;;
73951;SDS011;62304;47.662;18.324;2023-07-02T08:30:13;5.60;;;2.67;;
73951;SDS011;62304;47.662;18.324;2023-07-02T08:33:15;5.75;;;3.25;;
73951;SDS011;62304;47.662;18.324;2023-07-02T08:36:19;6.13;;;3.00;;
73951;SDS011;62304;47.662;18.324;2023-07-02T08:39:22;4.53;;;2.92;;
73951;SDS011;62304;47.662;18.324;2023-07-02T08:42:25;5.78;;;3.22;;
73951;SDS011;62304;47.662;18.324;2023-07-02T08:45:32;7.53;;;3.45;;
73951;SDS011;62304;47.662;18.324;2023-07-02T08:48:36;6.60;;;3.37;;
73951;SDS011;62304;47.662;18.324;2023-07-02T08:51:39;7.27;;;3.27;;
73951;SDS011;62304;47.662;18.324;2023-07-02T08:54:42;8.85;;;3.20;;
73951;SDS011;62304;47.662;18.324;2023-07-02T08:57:55;5.78;;;3.30;;
73951;SDS011;62304;47.662;18.324;2023-07-02T09:01:09;8.38;;;3.58;;
73951;SDS011;62304;47.662;18.324;2023-07-02T09:04:24;5.78;;;3.20;;
73951;SDS011;62304;47.662;18.324;2023-07-02T09:07:28;5.87;;;3.53;;
73951;SDS011;62304;47.662;18.324;2023-07-02T09:10:32;6.35;;;3.95;;
73951;SDS011;62304;47.662;18.324;2023-07-02T09:14:09;6.80;;;3.37;;
73951;SDS011;62304;47.662;18.324;2023-07-02T09:17:05;6.43;;;3.65;;
73951;SDS011;62304;47.662;18.324;2023-07-02T09:20:11;6.25;;;3.12;;
73951;SDS011;62304;47.662;18.324;2023-07-02T09:23:15;6.90;;;3.63;;
73951;SDS011;62304;47.662;18.324;2023-07-02T09:26:19;10.85;;;4.05;;
73951;SDS011;62304;47.662;18.324;2023-07-02T09:29:30;6.65;;;3.95;;
73951;SDS011;62304;47.662;18.324;2023-07-02T09:32:34;6.10;;;3.60;;
73951;SDS011;62304;47.662;18.324;2023-07-02T09:35:38;6.78;;;3.58;;
73951;SDS011;62304;47.662;18.324;2023-07-02T09:38:41;6.20;;;3.50;;
73951;SDS011;62304;47.662;18.324;2023-07-02T09:41:44;5.75;;;3.40;;
73951;SDS011;62304;47.662;18.324;2023-07-02T09:44:51;7.12;;;3.42;;
73951;SDS011;62304;47.662;18.324;2023-07-02T09:47:54;7.28;;;4.12;;
73951;SDS011;62304;47.662;18.324;2023-07-02T09:51:00;7.82;;;3.80;;
73951;SDS011;62304;47.662;18.324;2023-07-02T09:54:03;6.40;;;3.50;;
73951;SDS011;62304;47.662;18.324;2023-07-02T09:57:06;6.32;;;3.80;;
73951;SDS011;62304;47.662;18.324;2023-07-02T10:00:10;7.57;;;3.60;;
73951;SDS011;62304;47.662;18.324;2023-07-02T10:03:15;5.28;;;3.00;;
73951;SDS011;62304;47.662;18.324;2023-07-02T10:06:18;8.57;;;3.67;;
73951;SDS011;62304;47.662;18.324;2023-07-02T10:09:34;5.83;;;3.90;;
73951;SDS011;62304;47.662;18.324;2023-07-02T10:12:45;5.60;;;3.00;;
73951;SDS011;62304;47.662;18.324;2023-07-02T10:15:49;7.53;;;3.78;;
73951;SDS011;62304;47.662;18.324;2023-07-02T10:19:10;6.05;;;3.83;;
73951;SDS011;62304;47.662;18.324;2023-07-02T10:22:14;11.20;;;3.70;;
73951;SDS011;62304;47.662;18.324;2023-07-02T10:25:24;7.30;;;3.57;;
73951;SDS011;62304;47.662;18.324;2023-07-02T10:28:30;7.55;;;3.22;;
73951;SDS011;62304;47.662;18.324;2023-07-02T10:31:33;9.32;;;3.58;;
73951;SDS011;62304;47.662;18.324;2023-07-02T10:34:36;9.45;;;3.53;;
73951;SDS011;62304;47.662;18.324;2023-07-02T10:37:40;9.25;;;3.75;;
73951;SDS011;62304;47.662;18.324;2023-07-02T10:40:43;5.50;;;3.53;;
73951;SDS011;62304;47.662;18.324;2023-07-02T10:43:46;6.60;;;3.92;;
73951;SDS011;62304;47.662;18.324;2023-07-02T10:46:49;6.70;;;3.72;;
73951;SDS011;62304;47.662;18.324;2023-07-02T10:49:53;6.93;;;3.60;;
73951;SDS011;62304;47.662;18.324;2023-07-02T10:52:57;8.07;;;3.60;;
73951;SDS011;62304;47.662;18.324;2023-07-02T10:56:00;7.43;;;3.80;;
73951;SDS011;62304;47.662;18.324;2023-07-02T10:59:03;7.10;;;3.65;;
73951;SDS011;62304;47.662;18.324;2023-07-02T11:02:06;5.40;;;3.53;;
73951;SDS011;62304;47.662;18.324;2023-07-02T11:05:10;5.30;;;3.12;;
73951;SDS011;62304;47.662;18.324;2023-07-02T11:08:17;6.03;;;3.47;;
73951;SDS011;62304;47.662;18.324;2023-07-02T11:11:21;6.70;;;3.40;;
73951;SDS011;62304;47.662;18.324;2023-07-02T11:17:31;6.87;;;3.28;;
73951;SDS011;62304;47.662;18.324;2023-07-02T11:20:33;6.15;;;3.50;;
73951;SDS011;62304;47.662;18.324;2023-07-02T11:23:37;5.47;;;3.12;;
73951;SDS011;62304;47.662;18.324;2023-07-02T11:26:40;7.07;;;3.10;;
73951;SDS011;62304;47.662;18.324;2023-07-02T11:29:44;5.70;;;3.00;;
73951;SDS011;62304;47.662;18.324;2023-07-02T11:32:50;5.28;;;2.90;;
73951;SDS011;62304;47.662;18.324;2023-07-02T11:35:56;4.50;;;2.42;;
73951;SDS011;62304;47.662;18.324;2023-07-02T11:38:58;4.15;;;2.03;;
73951;SDS011;62304;47.662;18.324;2023-07-02T11:42:02;3.90;;;2.10;;
73951;SDS011;62304;47.662;18.324;2023-07-02T11:45:05;5.87;;;2.45;;
73951;SDS011;62304;47.662;18.324;2023-07-02T11:48:08;5.47;;;2.78;;
73951;SDS011;62304;47.662;18.324;2023-07-02T11:51:11;3.20;;;1.60;;
73951;SDS011;62304;47.662;18.324;2023-07-02T11:54:14;3.87;;;1.70;;
73951;SDS011;62304;47.662;18.324;2023-07-02T11:57:19;4.73;;;2.10;;
73951;SDS011;62304;47.662;18.324;2023-07-02T12:00:24;4.62;;;1.35;;
73951;SDS011;62304;47.662;18.324;2023-07-02T12:03:28;3.85;;;1.65;;
73951;SDS011;62304;47.662;18.324;2023-07-02T12:06:33;3.25;;;1.48;;
73951;SDS011;62304;47.662;18.324;2023-07-02T12:09:37;6.10;;;1.85;;
73951;SDS011;62304;47.662;18.324;2023-07-02T12:12:40;3.40;;;1.40;;
73951;SDS011;62304;47.662;18.324;2023-07-02T12:15:43;3.42;;;1.48;;
73951;SDS011;62304;47.662;18.324;2023-07-02T12:18:46;3.65;;;1.65;;
73951;SDS011;62304;47.662;18.324;2023-07-02T12:21:50;3.97;;;1.60;;
73951;SDS011;62304;47.662;18.324;2023-07-02T12:24:53;4.07;;;1.67;;
73951;SDS011;62304;47.662;18.324;2023-07-02T12:27:58;4.83;;;1.70;;
73951;SDS011;62304;47.662;18.324;2023-07-02T12:31:01;3.50;;;1.65;;
73951;SDS011;62304;47.662;18.324;2023-07-02T12:34:05;3.33;;;1.85;;
73951;SDS011;62304;47.662;18.324;2023-07-02T12:37:08;3.65;;;1.90;;
73951;SDS011;62304;47.662;18.324;2023-07-02T12:40:11;3.65;;;1.80;;
73951;SDS011;62304;47.662;18.324;2023-07-02T12:43:15;4.20;;;1.87;;
73951;SDS011;62304;47.662;18.324;2023-07-02T12:46:19;3.53;;;1.60;;
73951;SDS011;62304;47.662;18.324;2023-07-02T12:49:21;4.12;;;2.00;;
73951;SDS011;62304;47.662;18.324;2023-07-02T12:52:25;4.62;;;1.90;;
73951;SDS011;62304;47.662;18.324;2023-07-02T12:55:28;3.22;;;1.92;;
73951;SDS011;62304;47.662;18.324;2023-07-02T12:58:31;5.07;;;2.00;;
73951;SDS011;62304;47.662;18.324;2023-07-02T13:01:35;3.83;;;2.00;;
73951;SDS011;62304;47.662;18.324;2023-07-02T13:04:39;4.68;;;2.30;;
73951;SDS011;62304;47.662;18.324;2023-07-02T13:07:43;3.58;;;1.75;;
73951;SDS011;62304;47.662;18.324;2023-07-02T13:10:46;3.58;;;1.50;;
73951;SDS011;62304;47.662;18.324;2023-07-02T13:13:50;3.87;;;2.20;;
73951;SDS011;62304;47.662;18.324;2023-07-02T13:16:54;3.83;;;2.00;;
73951;SDS011;62304;47.662;18.324;2023-07-02T13:19:57;4.43;;;2.00;;
73951;SDS011;62304;47.662;18.324;2023-07-02T13:23:02;3.47;;;1.73;;
73951;SDS011;62304;47.662;18.324;2023-07-02T13:26:07;3.90;;;2.20;;
73951;SDS011;62304;47.662;18.324;2023-07-02T13:29:11;3.33;;;1.63;;
73951;SDS011;62304;47.662;18.324;2023-07-02T13:32:15;4.75;;;1.90;;
73951;SDS011;62304;47.662;18.324;2023-07-02T13:35:19;4.00;;;2.25;;
73951;SDS011;62304;47.662;18.324;2023-07-02T13:38:25;4.18;;;1.60;;
73951;SDS011;62304;47.662;18.324;2023-07-02T13:41:28;4.43;;;1.90;;
73951;SDS011;62304;47.662;18.324;2023-07-02T13:44:33;3.20;;;1.73;;
73951;SDS011;62304;47.662;18.324;2023-07-02T13:47:37;3.78;;;1.90;;
73951;SDS011;62304;47.662;18.324;2023-07-02T13:50:40;3.78;;;1.80;;
73951;SDS011;62304;47.662;18.324;2023-07-02T13:53:44;5.18;;;1.90;;
73951;SDS011;62304;47.662;18.324;2023-07-02T13:56:48;6.37;;;2.47;;
73951;SDS011;62304;47.662;18.324;2023-07-02T13:59:53;7.30;;;2.10;;
73951;SDS011;62304;47.662;18.324;2023-07-02T14:02:59;4.03;;;2.00;;
73951;SDS011;62304;47.662;18.324;2023-07-02T14:06:04;3.55;;;1.80;;
73951;SDS011;62304;47.662;18.324;2023-07-02T14:09:07;4.57;;;1.80;;
73951;SDS011;62304;47.662;18.324;2023-07-02T14:12:12;4.72;;;2.00;;
73951;SDS011;62304;47.662;18.324;2023-07-02T14:15:16;3.60;;;1.70;;
73951;SDS011;62304;47.662;18.324;2023-07-02T14:18:20;4.28;;;2.03;;
73951;SDS011;62304;47.662;18.324;2023-07-02T14:21:23;4.45;;;2.10;;
73951;SDS011;62304;47.662;18.324;2023-07-02T14:24:28;5.10;;;2.25;;
73951;SDS011;62304;47.662;18.324;2023-07-02T14:27:33;4.87;;;2.08;;
73951;SDS011;62304;47.662;18.324;2023-07-02T14:30:37;5.40;;;2.00;;
73951;SDS011;62304;47.662;18.324;2023-07-02T14:33:41;6.87;;;2.53;;
73951;SDS011;62304;47.662;18.324;2023-07-02T14:36:45;4.30;;;2.08;;
73951;SDS011;62304;47.662;18.324;2023-07-02T14:39:48;7.40;;;2.58;;
73951;SDS011;62304;47.662;18.324;2023-07-02T14:43:08;4.85;;;2.60;;
73951;SDS011;62304;47.662;18.324;2023-07-02T14:46:11;5.47;;;2.40;;
73951;SDS011;62304;47.662;18.324;2023-07-02T14:49:15;4.20;;;2.30;;
73951;SDS011;62304;47.662;18.324;2023-07-02T14:52:18;6.20;;;2.60;;
73951;SDS011;62304;47.662;18.324;2023-07-02T14:55:22;6.97;;;1.98;;
73951;SDS011;62304;47.662;18.324;2023-07-02T14:58:25;4.18;;;1.83;;
73951;SDS011;62304;47.662;18.324;2023-07-02T15:01:30;4.40;;;1.67;;
73951;SDS011;62304;47.662;18.324;2023-07-02T15:04:33;3.83;;;1.50;;
73951;SDS011;62304;47.662;18.324;2023-07-02T15:07:36;5.93;;;2.00;;
73951;SDS011;62304;47.662;18.324;2023-07-02T15:10:40;3.80;;;1.83;;
73951;SDS011;62304;47.662;18.324;2023-07-02T15:13:43;4.10;;;1.48;;
73951;SDS011;62304;47.662;18.324;2023-07-02T15:16:46;4.47;;;1.80;;
73951;SDS011;62304;47.662;18.324;2023-07-02T15:19:50;4.85;;;1.83;;
73951;SDS011;62304;47.662;18.324;2023-07-02T15:22:53;4.28;;;2.00;;
73951;SDS011;62304;47.662;18.324;2023-07-02T15:26:03;5.68;;;2.10;;
73951;SDS011;62304;47.662;18.324;2023-07-02T15:29:07;4.47;;;2.10;;
73951;SDS011;62304;47.662;18.324;2023-07-02T15:32:10;4.30;;;2.00;;
73951;SDS011;62304;47.662;18.324;2023-07-02T15:35:13;4.50;;;1.95;;
73951;SDS011;62304;47.662;18.324;2023-07-02T15:38:17;5.22;;;2.03;;
73951;SDS011;62304;47.662;18.324;2023-07-02T15:41:20;3.78;;;1.95;;
73951;SDS011;62304;47.662;18.324;2023-07-02T15:44:24;4.93;;;1.80;;
73951;SDS011;62304;47.662;18.324;2023-07-02T15:47:28;4.40;;;2.23;;
73951;SDS011;62304;47.662;18.324;2023-07-02T15:50:33;4.45;;;2.10;;
73951;SDS011;62304;47.662;18.324;2023-07-02T15:53:37;5.37;;;2.60;;
73951;SDS011;62304;47.662;18.324;2023-07-02T15:56:42;5.00;;;2.53;;
73951;SDS011;62304;47.662;18.324;2023-07-02T15:59:44;4.90;;;2.20;;
73951;SDS011;62304;47.662;18.324;2023-07-02T16:02:48;5.40;;;2.00;;
73951;SDS011;62304;47.662;18.324;2023-07-02T16:05:56;4.87;;;2.20;;
73951;SDS011;62304;47.662;18.324;2023-07-02T16:09:02;5.65;;;2.50;;
73951;SDS011;62304;47.662;18.324;2023-07-02T16:12:06;4.45;;;2.30;;
73951;SDS011;62304;47.662;18.324;2023-07-02T16:15:10;5.97;;;1.80;;
73951;SDS011;62304;47.662;18.324;2023-07-02T16:18:13;7.83;;;1.93;;
73951;SDS011;62304;47.662;18.324;2023-07-02T16:21:17;6.18;;;1.87;;
73951;SDS011;62304;47.662;18.324;2023-07-02T16:24:21;4.37;;;2.20;;
73951;SDS011;62304;47.662;18.324;2023-07-02T16:27:26;5.37;;;1.80;;
73951;SDS011;62304;47.662;18.324;2023-07-02T16:30:31;3.72;;;1.85;;
73951;SDS011;62304;47.662;18.324;2023-07-02T16:33:35;5.80;;;1.83;;
73951;SDS011;62304;47.662;18.324;2023-07-02T16:36:40;3.90;;;1.50;;
73951;SDS011;62304;47.662;18.324;2023-07-02T16:39:44;4.20;;;1.35;;
73951;SDS011;62304;47.662;18.324;2023-07-02T16:42:50;3.58;;;1.30;;
73951;SDS011;62304;47.662;18.324;2023-07-02T16:45:54;2.80;;;1.17;;
73951;SDS011;62304;47.662;18.324;2023-07-02T16:49:00;5.07;;;1.30;;
73951;SDS011;62304;47.662;18.324;2023-07-02T16:52:04;3.83;;;1.15;;
73951;SDS011;62304;47.662;18.324;2023-07-02T16:55:07;4.10;;;1.20;;
73951;SDS011;62304;47.662;18.324;2023-07-02T16:58:10;3.30;;;1.10;;
73951;SDS011;62304;47.662;18.324;2023-07-02T17:01:14;3.25;;;1.17;;
73951;SDS011;62304;47.662;18.324;2023-07-02T17:04:17;4.37;;;1.40;;
73951;SDS011;62304;47.662;18.324;2023-07-02T17:07:22;4.07;;;1.00;;
73951;SDS011;62304;47.662;18.324;2023-07-02T17:10:25;4.78;;;1.30;;
73951;SDS011;62304;47.662;18.324;2023-07-02T17:13:29;4.10;;;1.40;;
73951;SDS011;62304;47.662;18.324;2023-07-02T17:16:32;5.50;;;1.10;;
73951;SDS011;62304;47.662;18.324;2023-07-02T17:19:38;15.03;;;1.33;;
73951;SDS011;62304;47.662;18.324;2023-07-02T17:22:42;3.70;;;1.12;;
73951;SDS011;62304;47.662;18.324;2023-07-02T17:25:46;7.28;;;1.15;;
73951;SDS011;62304;47.662;18.324;2023-07-02T17:28:50;6.12;;;1.12;;
73951;SDS011;62304;47.662;18.324;2023-07-02T17:31:54;5.55;;;1.42;;
73951;SDS011;62304;47.662;18.324;2023-07-02T17:34:58;6.63;;;1.33;;
73951;SDS011;62304;47.662;18.324;2023-07-02T17:38:03;3.50;;;1.10;;
73951;SDS011;62304;47.662;18.324;2023-07-02T17:41:06;7.15;;;1.48;;
73951;SDS011;62304;47.662;18.324;2023-07-02T17:44:17;4.30;;;1.50;;
73951;SDS011;62304;47.662;18.324;2023-07-02T17:47:30;5.40;;;1.50;;
73951;SDS011;62304;47.662;18.324;2023-07-02T17:50:34;5.80;;;1.30;;
73951;SDS011;62304;47.662;18.324;2023-07-02T17:53:38;6.68;;;1.80;;
73951;SDS011;62304;47.662;18.324;2023-07-02T17:56:46;3.83;;;1.48;;
73951;SDS011;62304;47.662;18.324;2023-07-02T17:59:53;4.12;;;1.33;;
73951;SDS011;62304;47.662;18.324;2023-07-02T18:02:59;3.72;;;1.67;;
73951;SDS011;62304;47.662;18.324;2023-07-02T18:06:04;3.50;;;1.57;;